createdAt,value
2017-10-08T00:01:10.859Z,8.20
2017-10-08T00:03:39.347Z,8.20
2017-10-08T00:06:07.851Z,8.20
2017-10-08T00:08:36.349Z,8.30
2017-10-08T00:11:05.594Z,8.20
2017-10-08T00:13:34.071Z,8.20
2017-10-08T00:16:08.087Z,8.30
2017-10-08T00:18:36.638Z,8.20
2017-10-08T00:21:05.872Z,8.30
2017-10-08T00:23:34.349Z,8.30
2017-10-08T00:26:02.835Z,8.30
2017-10-08T00:28:31.301Z,8.30
2017-10-08T00:30:59.780Z,8.30
2017-10-08T00:33:28.259Z,8.40
2017-10-08T00:35:57.515Z,8.40
2017-10-08T00:38:25.982Z,8.40
2017-10-08T00:40:54.492Z,8.40
2017-10-08T00:43:22.981Z,8.40
2017-10-08T00:45:51.448Z,8.40
2017-10-08T00:48:19.930Z,8.40
2017-10-08T00:50:48.038Z,8.40
2017-10-08T00:53:16.551Z,8.40
2017-10-08T00:55:44.346Z,8.30
2017-10-08T00:58:12.300Z,8.40
2017-10-08T01:00:40.451Z,8.40
2017-10-08T01:03:08.945Z,8.40
2017-10-08T01:05:37.423Z,8.40
2017-10-08T01:08:05.895Z,8.40
2017-10-08T01:10:34.477Z,8.40
2017-10-08T01:13:03.007Z,8.40
2017-10-08T01:15:31.466Z,8.30
2017-10-08T01:17:59.618Z,8.40
2017-10-08T01:20:28.314Z,8.40
2017-10-08T01:22:56.435Z,8.40
2017-10-08T01:25:24.895Z,8.40
2017-10-08T01:27:53.044Z,8.40
2017-10-08T01:30:20.809Z,8.40
2017-10-08T01:32:48.939Z,8.40
2017-10-08T01:35:17.068Z,8.40
2017-10-08T01:37:45.245Z,8.40
2017-10-08T01:40:13.036Z,8.40
2017-10-08T01:42:41.491Z,8.50
2017-10-08T01:45:09.960Z,8.40
2017-10-08T01:47:38.420Z,8.40
2017-10-08T01:50:07.159Z,8.40
2017-10-08T01:52:35.626Z,8.40
2017-10-08T01:55:04.130Z,8.40
2017-10-08T01:57:32.599Z,8.40
2017-10-08T02:00:01.076Z,8.40
2017-10-08T02:02:29.199Z,8.40
2017-10-08T02:04:57.314Z,8.40
2017-10-08T02:07:25.795Z,8.40
2017-10-08T02:09:54.311Z,8.40
2017-10-08T02:12:22.992Z,8.40
2017-10-08T02:14:51.467Z,8.40
2017-10-08T02:17:19.943Z,8.40
2017-10-08T02:19:48.558Z,8.40
2017-10-08T02:22:17.028Z,8.30
2017-10-08T02:24:45.498Z,8.40
2017-10-08T02:27:13.975Z,8.40
2017-10-08T02:29:42.523Z,8.40
2017-10-08T02:32:11.743Z,8.40
2017-10-08T02:34:40.206Z,8.40
2017-10-08T02:37:09.447Z,8.50
2017-10-08T02:39:37.949Z,8.40
2017-10-08T02:42:06.456Z,8.50
2017-10-08T02:44:35.024Z,8.50
2017-10-08T02:47:03.507Z,8.50
2017-10-08T02:49:31.795Z,8.50
2017-10-08T02:52:00.538Z,8.50
2017-10-08T02:54:29.003Z,8.50
2017-10-08T02:56:57.496Z,8.50
2017-10-08T02:59:25.955Z,8.50
2017-10-08T03:01:55.190Z,8.50
2017-10-08T03:04:23.684Z,8.40
2017-10-08T03:06:52.188Z,8.50
2017-10-08T03:09:20.838Z,8.50
2017-10-08T03:11:49.322Z,8.60
2017-10-08T03:14:17.606Z,8.50
2017-10-08T03:16:46.121Z,8.50
2017-10-08T03:19:14.581Z,8.50
2017-10-08T03:21:43.051Z,8.50
2017-10-08T03:24:11.532Z,8.50
2017-10-08T03:26:40.135Z,8.50
2017-10-08T03:29:08.663Z,8.40
2017-10-08T03:31:37.916Z,8.40
2017-10-08T03:34:06.388Z,8.40
2017-10-08T03:36:34.900Z,8.50
2017-10-08T03:39:03.163Z,8.50
2017-10-08T03:41:31.634Z,8.40
2017-10-08T03:44:00.107Z,8.40
2017-10-08T03:46:28.736Z,8.40
2017-10-08T03:48:57.206Z,8.40
2017-10-08T03:51:25.687Z,8.40
2017-10-08T03:53:54.142Z,8.40
2017-10-08T03:56:22.658Z,8.40
2017-10-08T03:58:50.900Z,8.30
2017-10-08T04:01:19.362Z,8.30
2017-10-08T04:03:47.827Z,8.30
2017-10-08T04:06:17.054Z,8.30
2017-10-08T04:08:45.463Z,8.30
2017-10-08T04:11:13.927Z,8.40
2017-10-08T04:13:42.360Z,8.30
2017-10-08T04:16:11.412Z,8.40
2017-10-08T04:18:39.355Z,8.40
2017-10-08T04:21:07.628Z,8.30
2017-10-08T04:23:36.550Z,8.30
2017-10-08T04:26:05.002Z,8.30
2017-10-08T04:28:33.459Z,8.40
2017-10-08T04:31:02.712Z,8.40
2017-10-08T04:33:31.202Z,8.30
2017-10-08T04:35:59.679Z,8.40
2017-10-08T04:38:28.311Z,8.40
2017-10-08T04:40:57.368Z,8.30
2017-10-08T04:43:25.891Z,8.40
2017-10-08T04:45:55.133Z,8.40
2017-10-08T04:48:23.726Z,8.40
2017-10-08T04:50:52.184Z,8.30
2017-10-08T04:53:21.567Z,8.40
2017-10-08T04:55:50.784Z,8.40
2017-10-08T04:58:20.015Z,8.40
2017-10-08T05:00:48.470Z,8.40
2017-10-08T05:03:17.346Z,8.40
2017-10-08T05:05:46.573Z,8.40
2017-10-08T05:08:15.051Z,8.40
2017-10-08T05:10:43.511Z,8.40
2017-10-08T05:13:12.751Z,8.40
2017-10-08T05:15:41.225Z,8.40
2017-10-08T05:18:09.712Z,8.40
2017-10-08T05:20:38.171Z,8.40
2017-10-08T05:23:06.631Z,8.40
2017-10-08T05:25:35.870Z,8.40
2017-10-08T05:28:04.330Z,8.30
2017-10-08T05:30:33.566Z,8.40
2017-10-08T05:33:02.039Z,8.40
2017-10-08T05:35:30.576Z,8.40
2017-10-08T05:37:59.799Z,8.40
2017-10-08T05:40:28.263Z,8.40
2017-10-08T05:42:57.506Z,8.40
2017-10-08T05:45:25.958Z,8.40
2017-10-08T05:47:55.251Z,8.40
2017-10-08T05:50:24.480Z,8.50
2017-10-08T05:52:52.951Z,8.50
2017-10-08T05:55:21.411Z,8.50
2017-10-08T05:57:50.646Z,8.50
2017-10-08T06:00:19.098Z,8.50
2017-10-08T06:02:48.335Z,8.50
2017-10-08T06:05:16.839Z,8.60
2017-10-08T06:07:45.310Z,8.60
2017-10-08T06:10:13.773Z,8.50
2017-10-08T06:12:42.726Z,8.60
2017-10-08T06:15:11.203Z,8.60
2017-10-08T06:17:39.474Z,8.70
2017-10-08T06:20:07.959Z,8.60
2017-10-08T06:22:36.493Z,8.70
2017-10-08T06:25:05.065Z,8.70
2017-10-08T06:27:34.287Z,8.70
2017-10-08T06:30:02.760Z,8.70
2017-10-08T06:32:31.223Z,8.70
2017-10-08T06:35:00.451Z,8.80
2017-10-08T06:37:29.047Z,8.70
2017-10-08T06:39:57.494Z,8.80
2017-10-08T06:42:25.973Z,8.80
2017-10-08T06:44:54.442Z,8.80
2017-10-08T06:47:23.683Z,8.90
2017-10-08T06:49:52.143Z,8.90
2017-10-08T06:52:20.623Z,8.90
2017-10-08T06:54:49.083Z,9.00
2017-10-08T06:57:18.408Z,9.00
2017-10-08T06:59:46.870Z,9.00
2017-10-08T07:02:16.103Z,9.10
2017-10-08T07:04:45.002Z,9.10
2017-10-08T07:07:13.468Z,9.00
2017-10-08T07:09:41.952Z,9.10
2017-10-08T07:12:11.053Z,9.20
2017-10-08T07:14:39.532Z,9.20
2017-10-08T07:17:08.018Z,9.30
2017-10-08T07:19:36.123Z,9.40
2017-10-08T07:22:03.944Z,9.40
2017-10-08T07:24:32.454Z,9.40
2017-10-08T07:27:00.934Z,9.50
2017-10-08T07:29:29.406Z,9.50
2017-10-08T07:31:57.892Z,9.60
2017-10-08T07:34:26.363Z,9.70
2017-10-08T07:36:54.635Z,9.60
2017-10-08T07:39:23.123Z,9.80
2017-10-08T07:41:51.654Z,9.80
2017-10-08T07:44:21.113Z,9.90
2017-10-08T07:46:49.672Z,9.90
2017-10-08T07:49:20.705Z,9.90
2017-10-08T07:51:49.591Z,10.00
2017-10-08T07:54:18.476Z,10.00
2017-10-08T07:56:46.621Z,10.00
2017-10-08T07:59:15.856Z,10.10
2017-10-08T08:01:44.727Z,10.20
2017-10-08T08:04:13.603Z,10.20
2017-10-08T08:06:42.842Z,10.10
2017-10-08T08:09:11.722Z,10.20
2017-10-08T08:11:40.570Z,10.20
2017-10-08T08:14:09.844Z,10.20
2017-10-08T08:16:38.699Z,10.10
2017-10-08T08:19:07.683Z,10.20
2017-10-08T08:21:36.547Z,10.30
2017-10-08T08:24:05.845Z,10.30
2017-10-08T08:26:34.735Z,10.30
2017-10-08T08:29:03.608Z,10.20
2017-10-08T08:31:32.507Z,10.30
2017-10-08T08:34:01.755Z,10.30
2017-10-08T08:36:30.634Z,10.30
2017-10-08T08:39:00.236Z,10.30
2017-10-08T08:41:28.715Z,10.50
2017-10-08T08:43:57.580Z,10.50
2017-10-08T08:46:27.119Z,10.60
2017-10-08T08:48:55.578Z,10.60
2017-10-08T08:51:24.819Z,10.70
2017-10-08T08:53:54.085Z,10.90
2017-10-08T08:56:23.334Z,11.00
2017-10-08T08:58:51.808Z,11.10
2017-10-08T09:01:20.688Z,11.10
2017-10-08T09:03:49.376Z,11.10
2017-10-08T09:06:17.823Z,11.20
2017-10-08T09:08:46.519Z,11.40
2017-10-08T09:11:15.571Z,11.50
2017-10-08T09:13:44.813Z,11.50
2017-10-08T09:16:13.720Z,11.40
2017-10-08T09:18:42.404Z,11.60
2017-10-08T09:21:11.671Z,11.70
2017-10-08T09:23:40.551Z,10.40
2017-10-08T09:26:09.505Z,12.10
2017-10-08T09:28:38.746Z,12.10
2017-10-08T09:31:07.612Z,12.00
2017-10-08T09:33:36.843Z,12.10
2017-10-08T09:36:05.720Z,12.00
2017-10-08T09:38:34.577Z,12.10
2017-10-08T09:41:03.825Z,11.90
2017-10-08T09:43:32.730Z,11.90
2017-10-08T09:46:01.775Z,11.90
2017-10-08T09:48:30.451Z,11.70
2017-10-08T09:50:59.695Z,11.80
2017-10-08T09:53:28.583Z,11.80
2017-10-08T09:55:57.840Z,11.50
2017-10-08T09:58:26.723Z,11.60
2017-10-08T10:00:55.581Z,11.70
2017-10-08T10:03:24.499Z,11.80
2017-10-08T10:05:53.824Z,11.90
2017-10-08T10:08:23.491Z,11.90
2017-10-08T10:10:52.750Z,11.90
2017-10-08T10:13:21.627Z,12.00
2017-10-08T10:15:51.380Z,11.90
2017-10-08T10:18:20.603Z,12.00
2017-10-08T10:20:49.500Z,12.00
2017-10-08T10:23:18.531Z,12.30
2017-10-08T10:25:47.756Z,12.50
2017-10-08T10:28:16.668Z,12.70
2017-10-08T10:30:45.564Z,12.90
2017-10-08T10:33:14.449Z,13.10
2017-10-08T10:35:42.955Z,13.20
2017-10-08T10:38:11.830Z,13.50
2017-10-08T10:40:40.788Z,13.40
2017-10-08T10:43:10.088Z,13.60
2017-10-08T10:45:38.660Z,13.60
2017-10-08T10:48:07.522Z,13.80
2017-10-08T10:50:36.772Z,13.70
2017-10-08T10:53:05.861Z,13.70
2017-10-08T10:55:34.770Z,13.70
2017-10-08T10:58:03.679Z,13.70
2017-10-08T11:00:32.558Z,13.70
2017-10-08T11:03:01.826Z,13.70
2017-10-08T11:05:30.286Z,13.70
2017-10-08T11:07:58.760Z,13.70
2017-10-08T11:10:28.024Z,13.50
2017-10-08T11:12:56.487Z,13.40
2017-10-08T11:15:25.823Z,13.60
2017-10-08T11:17:54.716Z,13.50
2017-10-08T11:20:23.579Z,13.50
2017-10-08T11:22:52.824Z,13.30
2017-10-08T11:25:21.694Z,13.10
2017-10-08T11:27:50.574Z,13.00
2017-10-08T11:30:19.037Z,12.90
2017-10-08T11:32:47.862Z,13.00
2017-10-08T11:35:17.193Z,13.10
2017-10-08T11:37:45.693Z,13.30
2017-10-08T11:40:14.572Z,13.40
2017-10-08T11:42:43.472Z,13.30
2017-10-08T11:45:12.699Z,13.30
2017-10-08T11:47:41.779Z,13.30
2017-10-08T11:50:11.399Z,13.30
2017-10-08T11:52:39.671Z,13.30
2017-10-08T11:55:08.412Z,13.30
2017-10-08T11:57:37.815Z,13.50
2017-10-08T12:00:06.703Z,13.80
2017-10-08T12:02:35.571Z,13.80
2017-10-08T12:05:04.819Z,13.70
2017-10-08T12:07:33.939Z,13.60
2017-10-08T12:10:02.812Z,13.30
2017-10-08T12:12:31.739Z,13.00
2017-10-08T12:15:00.615Z,13.00
2017-10-08T12:17:29.531Z,13.30
2017-10-08T12:19:58.782Z,13.40
2017-10-08T12:22:27.248Z,13.60
2017-10-08T12:24:56.507Z,14.00
2017-10-08T12:27:25.764Z,14.40
2017-10-08T12:29:54.656Z,14.80
2017-10-08T12:32:23.532Z,14.70
2017-10-08T12:34:52.428Z,14.50
2017-10-08T12:37:22.618Z,14.70
2017-10-08T12:39:51.743Z,14.40
2017-10-08T12:42:20.608Z,14.30
2017-10-08T12:44:49.486Z,14.20
2017-10-08T12:47:18.707Z,14.00
2017-10-08T12:49:47.579Z,13.90
2017-10-08T12:52:16.566Z,13.80
2017-10-08T12:54:45.425Z,13.50
2017-10-08T12:57:14.673Z,13.50
2017-10-08T12:59:43.565Z,13.60
2017-10-08T13:02:12.431Z,13.60
2017-10-08T13:04:41.930Z,13.70
2017-10-08T13:07:10.419Z,13.70
2017-10-08T13:09:38.908Z,13.50
2017-10-08T13:12:07.777Z,13.70
2017-10-08T13:14:36.651Z,13.70
2017-10-08T13:17:05.514Z,13.60
2017-10-08T13:19:34.769Z,13.60
2017-10-08T13:22:03.448Z,13.40
2017-10-08T13:24:32.491Z,13.50
2017-10-08T13:27:01.747Z,13.70
2017-10-08T13:29:30.643Z,13.80
2017-10-08T13:31:59.125Z,14.00
2017-10-08T13:34:27.595Z,14.00
2017-10-08T13:36:56.487Z,14.00
2017-10-08T13:39:25.756Z,14.10
2017-10-08T13:41:54.694Z,14.00
2017-10-08T13:44:23.536Z,14.20
2017-10-08T13:46:52.772Z,14.00
2017-10-08T13:49:21.677Z,14.10
2017-10-08T13:51:50.539Z,14.00
2017-10-08T13:54:19.611Z,14.10
2017-10-08T13:56:48.464Z,14.10
2017-10-08T13:59:17.724Z,14.30
2017-10-08T14:01:46.963Z,14.20
2017-10-08T14:04:16.215Z,14.30
2017-10-08T14:06:45.083Z,14.20
2017-10-08T14:09:14.330Z,14.30
2017-10-08T14:11:43.579Z,14.10
2017-10-08T14:14:12.459Z,14.20
2017-10-08T14:16:41.702Z,14.20
2017-10-08T14:19:10.572Z,14.10
2017-10-08T14:21:39.445Z,14.20
2017-10-08T14:24:08.713Z,14.20
2017-10-08T14:26:37.584Z,13.90
2017-10-08T14:29:06.943Z,13.80
2017-10-08T14:31:35.860Z,13.80
2017-10-08T14:34:04.716Z,13.90
2017-10-08T14:36:33.971Z,13.80
2017-10-08T14:39:02.863Z,14.00
2017-10-08T14:41:32.099Z,14.20
2017-10-08T14:44:00.972Z,14.50
2017-10-08T14:46:30.230Z,14.50
2017-10-08T14:48:59.115Z,14.50
2017-10-08T14:51:28.342Z,14.60
2017-10-08T14:53:57.591Z,14.50
2017-10-08T14:56:26.662Z,14.60
2017-10-08T14:58:56.143Z,14.70
2017-10-08T15:01:25.214Z,14.50
2017-10-08T15:03:54.264Z,14.50
2017-10-08T15:06:23.315Z,14.40
2017-10-08T15:08:52.415Z,14.30
2017-10-08T15:11:21.291Z,14.20
2017-10-08T15:13:49.959Z,14.40
2017-10-08T15:16:19.027Z,14.60
2017-10-08T15:18:48.196Z,14.50
2017-10-08T15:21:16.538Z,14.40
2017-10-08T15:23:45.621Z,14.00
2017-10-08T15:26:14.692Z,13.80
2017-10-08T15:28:43.390Z,13.70
2017-10-08T15:31:12.662Z,13.50
2017-10-08T15:33:41.559Z,13.40
2017-10-08T15:36:10.775Z,13.30
2017-10-08T15:38:39.646Z,13.20
2017-10-08T15:41:08.528Z,13.20
2017-10-08T15:43:37.392Z,13.10
2017-10-08T15:46:06.616Z,13.00
2017-10-08T15:48:35.940Z,13.00
2017-10-08T15:51:05.182Z,13.00
2017-10-08T15:53:33.677Z,13.00
2017-10-08T15:56:03.312Z,13.00
2017-10-08T15:58:32.223Z,13.00
2017-10-08T16:01:01.483Z,12.90
2017-10-08T16:03:30.731Z,12.80
2017-10-08T16:05:59.594Z,12.70
2017-10-08T16:08:28.294Z,12.80
2017-10-08T16:10:56.788Z,12.70
2017-10-08T16:13:25.664Z,12.60
2017-10-08T16:15:54.530Z,12.50
2017-10-08T16:18:23.389Z,12.50
2017-10-08T16:20:52.640Z,12.40
2017-10-08T16:23:21.567Z,12.40
2017-10-08T16:25:50.447Z,12.30
2017-10-08T16:28:19.339Z,12.20
2017-10-08T16:30:48.564Z,12.20
2017-10-08T16:33:17.452Z,12.20
2017-10-08T16:35:46.335Z,12.10
2017-10-08T16:38:15.612Z,12.10
2017-10-08T16:40:44.335Z,12.00
2017-10-08T16:43:13.397Z,12.00
2017-10-08T16:45:42.653Z,11.90
2017-10-08T16:48:11.519Z,12.00
2017-10-08T16:50:40.044Z,12.00
2017-10-08T16:53:08.583Z,11.90
2017-10-08T16:55:37.265Z,11.90
2017-10-08T16:58:06.501Z,11.80
2017-10-08T17:00:35.388Z,11.80
2017-10-08T17:03:04.644Z,11.90
2017-10-08T17:05:33.536Z,11.80
2017-10-08T17:08:02.515Z,11.70
2017-10-08T17:10:31.377Z,11.80
2017-10-08T17:13:00.712Z,11.70
2017-10-08T17:15:29.294Z,11.70
2017-10-08T17:17:57.788Z,11.60
2017-10-08T17:20:26.467Z,11.60
2017-10-08T17:22:55.340Z,11.60
2017-10-08T17:25:24.605Z,11.70
2017-10-08T17:27:53.502Z,11.70
2017-10-08T17:30:22.990Z,11.60
2017-10-08T17:32:52.247Z,11.60
2017-10-08T17:35:21.133Z,11.50
2017-10-08T17:37:49.631Z,11.50
2017-10-08T17:40:18.491Z,11.40
2017-10-08T17:42:47.380Z,11.40
2017-10-08T17:45:16.759Z,11.30
2017-10-08T17:47:45.627Z,11.30
2017-10-08T17:50:14.880Z,11.30
2017-10-08T17:52:44.111Z,11.30
2017-10-08T17:55:12.678Z,11.30
2017-10-08T17:57:41.544Z,11.30
2017-10-08T18:00:10.475Z,11.30
2017-10-08T18:02:39.704Z,11.30
2017-10-08T18:05:08.971Z,11.20
2017-10-08T18:07:37.460Z,11.30
2017-10-08T18:10:06.511Z,11.30
2017-10-08T18:12:35.411Z,11.40
2017-10-08T18:15:04.657Z,11.30
2017-10-08T18:17:33.723Z,11.10
2017-10-08T18:20:02.595Z,11.20
2017-10-08T18:22:31.266Z,11.20
2017-10-08T18:24:59.591Z,11.20
2017-10-08T18:27:28.301Z,11.20
2017-10-08T18:29:57.551Z,11.20
2017-10-08T18:32:26.410Z,11.20
2017-10-08T18:34:55.665Z,11.10
2017-10-08T18:37:24.547Z,11.00
2017-10-08T18:39:53.404Z,11.00
2017-10-08T18:42:22.649Z,11.00
2017-10-08T18:44:51.318Z,11.00
2017-10-08T18:47:19.847Z,11.00
2017-10-08T18:49:48.329Z,11.00
2017-10-08T18:52:18.133Z,11.00
2017-10-08T18:54:47.924Z,11.00
2017-10-08T18:57:16.439Z,11.00
2017-10-08T18:59:45.683Z,11.00
2017-10-08T19:02:14.538Z,11.00
2017-10-08T19:04:43.428Z,11.00
2017-10-08T19:07:12.667Z,10.90
2017-10-08T19:09:41.565Z,10.90
2017-10-08T19:12:10.459Z,10.90
2017-10-08T19:14:39.728Z,10.90
2017-10-08T19:17:08.610Z,10.90
2017-10-08T19:19:37.542Z,10.90
2017-10-08T19:22:06.453Z,10.90
2017-10-08T19:24:35.715Z,10.90
2017-10-08T19:27:04.586Z,10.90
2017-10-08T19:29:33.514Z,10.90
2017-10-08T19:32:02.798Z,10.90
2017-10-08T19:34:31.683Z,10.90
2017-10-08T19:37:00.676Z,10.90
2017-10-08T19:39:29.924Z,10.90
2017-10-08T19:41:58.600Z,10.90
2017-10-08T19:44:27.464Z,10.80
2017-10-08T19:46:56.328Z,10.80
2017-10-08T19:49:24.792Z,10.80
2017-10-08T19:51:53.712Z,10.90
2017-10-08T19:54:22.600Z,10.80
2017-10-08T19:56:51.493Z,10.80
2017-10-08T19:59:20.722Z,10.80
2017-10-08T20:01:49.576Z,10.70
2017-10-08T20:04:18.554Z,10.70
2017-10-08T20:06:47.780Z,10.70
2017-10-08T20:09:16.217Z,10.70
2017-10-08T20:11:44.717Z,10.70
2017-10-08T20:14:13.590Z,10.70
2017-10-08T20:16:42.473Z,10.70
2017-10-08T20:19:12.174Z,10.70
2017-10-08T20:21:40.670Z,10.70
2017-10-08T20:24:10.283Z,10.70
2017-10-08T20:26:38.769Z,10.70
2017-10-08T20:29:07.662Z,10.70
2017-10-08T20:31:36.572Z,10.70
2017-10-08T20:34:05.465Z,10.60
2017-10-08T20:36:34.816Z,10.60
2017-10-08T20:39:03.171Z,10.60
2017-10-08T20:41:32.464Z,10.60
2017-10-08T20:44:02.459Z,10.50
2017-10-08T20:46:31.332Z,10.50
2017-10-08T20:49:00.734Z,10.50
2017-10-08T20:51:29.602Z,10.50
2017-10-08T20:53:58.482Z,10.50
2017-10-08T20:56:27.378Z,10.40
2017-10-08T20:58:56.474Z,10.40
2017-10-08T21:01:25.351Z,10.30
2017-10-08T21:03:54.583Z,10.30
2017-10-08T21:06:23.094Z,10.40
2017-10-08T21:08:51.548Z,10.50
2017-10-08T21:11:20.541Z,10.50
2017-10-08T21:13:49.222Z,10.40
2017-10-08T21:16:17.534Z,10.50
2017-10-08T21:18:46.191Z,10.40
2017-10-08T21:21:14.759Z,10.40
2017-10-08T21:23:43.639Z,10.50
2017-10-08T21:26:12.328Z,10.50
2017-10-08T21:28:41.576Z,10.50
2017-10-08T21:31:10.288Z,10.50
2017-10-08T21:33:38.811Z,10.40
2017-10-08T21:36:08.029Z,10.50
2017-10-08T21:38:36.588Z,10.50
2017-10-08T21:41:05.631Z,10.50
2017-10-08T21:43:34.130Z,10.50
2017-10-08T21:46:02.599Z,10.50
2017-10-08T21:48:31.074Z,10.50
2017-10-08T21:50:59.359Z,10.50
2017-10-08T21:53:27.627Z,10.50
2017-10-08T21:55:56.117Z,10.50
2017-10-08T21:58:24.581Z,10.40
2017-10-08T22:00:52.392Z,10.40
2017-10-08T22:03:20.855Z,10.30
2017-10-08T22:05:49.409Z,10.40
2017-10-08T22:08:18.295Z,10.40
2017-10-08T22:10:46.797Z,10.40
2017-10-08T22:13:15.263Z,10.40
2017-10-08T22:15:43.735Z,10.40
2017-10-08T22:18:12.984Z,10.40
2017-10-08T22:20:41.454Z,10.40
2017-10-08T22:23:10.912Z,10.40
2017-10-08T22:25:40.150Z,10.30
2017-10-08T22:28:08.887Z,10.30
2017-10-08T22:30:38.908Z,10.30
2017-10-08T22:33:07.403Z,10.20
2017-10-08T22:35:36.667Z,10.40
2017-10-08T22:38:05.523Z,10.30
2017-10-08T22:40:34.019Z,10.20
2017-10-08T22:43:02.890Z,10.30
2017-10-08T22:45:31.357Z,10.20
2017-10-08T22:48:00.580Z,10.20
2017-10-08T22:50:29.290Z,10.20
2017-10-08T22:52:57.559Z,10.10
2017-10-08T22:55:26.032Z,10.10
2017-10-08T22:57:54.579Z,10.10
2017-10-08T23:00:23.709Z,10.20
2017-10-08T23:02:52.167Z,10.10
2017-10-08T23:05:21.415Z,10.20
2017-10-08T23:07:50.651Z,10.20
2017-10-08T23:10:19.898Z,10.20
2017-10-08T23:12:48.384Z,10.20
2017-10-08T23:15:16.865Z,10.20
2017-10-08T23:17:45.339Z,10.30
2017-10-08T23:20:13.811Z,10.30
2017-10-08T23:22:42.100Z,10.20
2017-10-08T23:25:10.612Z,10.20
2017-10-08T23:27:39.175Z,10.20
2017-10-08T23:30:07.679Z,10.20
2017-10-08T23:32:36.231Z,10.10
2017-10-08T23:35:04.790Z,10.10
2017-10-08T23:37:34.055Z,10.20
2017-10-08T23:40:02.905Z,10.20
2017-10-08T23:42:31.511Z,10.20
2017-10-08T23:44:59.967Z,10.10
2017-10-08T23:47:28.467Z,10.10
2017-10-08T23:49:56.947Z,10.10
2017-10-08T23:52:25.431Z,10.10
2017-10-08T23:54:53.711Z,10.10
2017-10-08T23:57:21.990Z,10.20
2017-10-08T23:59:50.491Z,10.10
